Time;durP1;ratioP1;P1;durP2;ratioP2;P2;SDS_P1;SDS_P2;PMS_P1;PMS_P2;Temp;Humidity;BMP_temperature;BMP_pressure;BME280_temperature;BME280_humidity;BME280_pressure;Samples;Min_cycle;Max_cycle;Signal;HPM_P1;HPM_P2
2022/06/03 00:00:19;;;;;;;8.90;4.30;;;;;;;21.58;100.00;101890.84;5011057;28;20034;-49
2022/06/03 00:03:16;;;;;;;7.97;3.60;;;;;;;21.60;100.00;101894.16;5024060;28;20109;-53
2022/06/03 00:06:04;;;;;;;7.45;4.22;;;;;;;21.65;100.00;101896.16;5015705;28;20267;-50
2022/06/03 00:08:54;;;;;;;8.50;3.67;;;;;;;21.36;100.00;101891.53;5032028;28;20113;-52
2022/06/03 00:11:23;;;;;;;5.07;3.50;;;;;;;21.74;100.00;101898.25;5015526;28;20283;-52
2022/06/03 00:14:26;;;;;;;6.67;3.93;;;;;;;21.54;100.00;101895.13;5026528;28;20280;-51
2022/06/03 00:17:10;;;;;;;7.57;3.80;;;;;;;21.48;100.00;101896.94;5025159;28;20354;-54
2022/06/03 00:20:01;;;;;;;8.93;4.27;;;;;;;21.24;100.00;101885.31;5015534;28;20272;-51
2022/06/03 00:22:49;;;;;;;6.40;3.93;;;;;;;21.57;100.00;101883.75;5022216;28;20284;-52
2022/06/03 00:25:34;;;;;;;4.50;3.70;;;;;;;21.42;100.00;101885.13;5027959;28;20268;-52
2022/06/03 00:28:28;;;;;;;4.77;3.70;;;;;;;21.45;100.00;101881.06;5017574;28;20267;-51
2022/06/03 00:31:18;;;;;;;6.13;3.97;;;;;;;21.38;100.00;101880.41;5018600;28;20284;-51
2022/06/03 00:34:09;;;;;;;8.67;4.20;;;;;;;20.99;100.00;101887.28;4976506;28;20264;-54
2022/06/03 00:37:02;;;;;;;7.73;4.00;;;;;;;21.45;100.00;101883.78;4982389;28;20301;-54
2022/06/03 00:39:30;;;;;;;8.23;4.10;;;;;;;21.30;100.00;101882.44;4988887;28;20264;-53
2022/06/03 00:42:25;;;;;;;6.90;4.80;;;;;;;20.96;100.00;101882.31;4978023;28;20291;-53
2022/06/03 00:45:12;;;;;;;7.10;4.47;;;;;;;20.74;100.00;101882.91;5000368;28;20282;-51
2022/06/03 00:48:16;;;;;;;6.33;4.67;;;;;;;21.19;100.00;101883.31;4990671;28;20289;-55
2022/06/03 00:51:03;;;;;;;6.30;3.83;;;;;;;20.65;100.00;101876.19;4981046;28;20288;-51
2022/06/03 00:53:51;;;;;;;8.07;4.50;;;;;;;20.96;100.00;101874.16;4988708;28;20264;-52
2022/06/03 00:56:42;;;;;;;8.27;5.05;;;;;;;20.88;100.00;101871.81;4980465;28;20260;-51
2022/06/03 00:59:34;;;;;;;11.60;5.00;;;;;;;21.51;100.00;101871.97;4992239;28;20066;-54
2022/06/03 01:02:21;;;;;;;5.70;4.00;;;;;;;21.80;100.00;101871.94;4978050;28;20279;-51
2022/06/03 01:04:58;;;;;;;6.32;4.20;;;;;;;21.65;100.00;101868.94;4980464;28;20265;-49
2022/06/03 01:07:23;;;;;;;;;;;;;;;21.78;100.00;101868.63;4989092;28;20046;-49
2022/06/03 01:10:20;;;;;;;9.03;5.10;;;;;;;21.24;100.00;101872.56;4976661;28;19981;-48
2022/06/03 01:13:01;;;;;;;7.63;4.17;;;;;;;21.54;100.00;101868.75;4980453;28;20043;-50
2022/06/03 01:15:41;;;;;;;8.50;4.37;;;;;;;21.45;100.00;101871.03;4989266;28;20287;-48
2022/06/03 01:18:28;;;;;;;6.93;4.97;;;;;;;21.65;100.00;101868.94;4991929;28;20352;-49
2022/06/03 01:21:14;;;;;;;6.80;4.22;;;;;;;21.75;100.00;101869.13;4979332;28;20281;-51
2022/06/03 01:23:49;;;;;;;8.83;5.03;;;;;;;21.35;100.00;101863.50;4988172;28;20106;-56
2022/06/03 01:26:33;;;;;;;5.73;4.57;;;;;;;21.33;100.00;101862.91;4976080;28;20262;-50
2022/06/03 01:28:58;;;;;;;7.47;4.77;;;;;;;21.09;100.00;101864.06;4988934;28;20276;-49
2022/06/03 01:32:01;;;;;;;8.33;4.97;;;;;;;21.74;100.00;101864.75;4983105;28;20307;-52
2022/06/03 01:34:45;;;;;;;7.73;5.40;;;;;;;20.92;100.00;101856.66;5025247;28;20046;-51
2022/06/03 01:37:22;;;;;;;7.03;4.30;;;;;;;21.36;100.00;101858.91;5029463;28;20358;-53
2022/06/03 01:40:39;;;;;;;9.43;4.57;;;;;;;21.41;100.00;101858.16;5018250;28;21083;-50
2022/06/03 01:43:23;;;;;;;8.83;4.67;;;;;;;21.30;100.00;101848.97;5023311;28;20276;-49
2022/06/03 01:46:12;;;;;;;6.77;4.70;;;;;;;21.09;100.00;101845.03;5018055;28;20264;-50
2022/06/03 01:48:57;;;;;;;7.53;4.43;;;;;;;20.75;100.00;101849.22;5023772;28;20299;-50
2022/06/03 01:51:51;;;;;;;9.50;5.03;;;;;;;20.74;100.00;101847.56;5030519;28;20280;-54
2022/06/03 01:54:49;;;;;;;8.40;4.60;;;;;;;21.62;100.00;101846.56;5021969;28;20293;-51
2022/06/03 01:57:24;;;;;;;8.17;4.93;;;;;;;21.89;100.00;101845.94;5018661;28;20264;-52
2022/06/03 02:00:05;;;;;;;10.30;5.60;;;;;;;21.70;100.00;101845.38;5018040;28;20271;-49
2022/06/03 02:02:50;;;;;;;9.53;5.40;;;;;;;21.44;100.00;101842.16;5033802;28;20297;-53
2022/06/03 02:05:34;;;;;;;9.53;5.00;;;;;;;21.46;100.00;101833.78;5033993;28;20283;-53
2022/06/03 02:08:18;;;;;;;8.20;5.50;;;;;;;21.56;100.00;101828.50;5019392;28;20267;-52
2022/06/03 02:11:24;;;;;;;7.27;4.97;;;;;;;21.18;100.00;101819.09;5022426;28;20291;-53
2022/06/03 02:13:56;;;;;;;6.40;4.30;;;;;;;21.26;100.00;101807.00;5018277;28;20299;-51
2022/06/03 02:16:44;;;;;;;7.77;5.00;;;;;;;21.22;100.00;101822.16;5033529;28;20276;-53
2022/06/03 02:19:51;;;;;;;7.90;5.60;;;;;;;21.26;100.00;101824.16;5033644;28;20343;-54
2022/06/03 02:22:43;;;;;;;8.37;5.03;;;;;;;21.13;100.00;101822.56;5021209;28;20285;-54
2022/06/03 02:25:22;;;;;;;7.33;4.93;;;;;;;20.84;100.00;101819.00;5019056;28;21053;-53
2022/06/03 02:28:18;;;;;;;8.40;4.93;;;;;;;21.03;100.00;101819.63;5017289;28;20319;-49
2022/06/03 02:31:25;;;;;;;9.70;5.03;;;;;;;20.83;100.00;101809.19;5022173;28;20360;-52
2022/06/03 02:34:36;;;;;;;7.57;4.37;;;;;;;20.87;100.00;101815.78;5015317;28;20298;-52
2022/06/03 02:37:08;;;;;;;8.27;5.13;;;;;;;20.72;100.00;101819.81;5014343;28;20288;-51
2022/06/03 02:39:43;;;;;;;7.13;4.70;;;;;;;20.83;100.00;101815.44;4982773;28;20344;-50
2022/06/03 02:42:27;;;;;;;10.83;5.03;;;;;;;20.76;100.00;101818.28;4994287;28;20289;-56
2022/06/03 02:45:27;;;;;;;8.53;5.57;;;;;;;20.58;100.00;101818.44;4981980;28;20292;-53
2022/06/03 02:48:18;;;;;;;13.60;5.47;;;;;;;21.06;100.00;101811.81;4978509;28;20281;-51
2022/06/03 02:51:18;;;;;;;8.37;5.13;;;;;;;20.95;100.00;101806.44;4983220;28;20343;-50
2022/06/03 02:53:58;;;;;;;11.03;5.10;;;;;;;21.26;100.00;101809.72;4990293;28;20305;-53
2022/06/03 02:56:47;;;;;;;8.47;5.10;;;;;;;21.01;100.00;101798.13;4982546;28;20280;-53
2022/06/03 02:59:31;;;;;;;9.13;5.50;;;;;;;20.90;100.00;101805.28;4979038;28;20296;-54
2022/06/03 03:02:23;;;;;;;8.73;5.30;;;;;;;20.37;100.00;101807.13;4978957;28;20304;-51
2022/06/03 03:05:26;;;;;;;9.60;5.47;;;;;;;20.44;100.00;101799.66;4982311;28;20284;-53
2022/06/03 03:07:55;;;;;;;7.33;4.27;;;;;;;20.12;100.00;101802.78;4978021;28;20269;-52
2022/06/03 03:10:49;;;;;;;11.63;5.00;;;;;;;20.21;100.00;101797.81;4985994;28;20318;-54
2022/06/03 03:13:34;;;;;;;8.77;4.80;;;;;;;20.10;100.00;101796.75;4988613;28;20277;-54
2022/06/03 03:16:05;;;;;;;10.13;5.17;;;;;;;20.19;100.00;101789.09;4978872;28;20320;-51
2022/06/03 03:19:06;;;;;;;11.13;5.23;;;;;;;20.06;100.00;101790.97;4984790;28;20289;-49
2022/06/03 03:21:49;;;;;;;8.73;5.63;;;;;;;19.76;100.00;101791.03;4990085;28;20280;-52
2022/06/03 03:24:53;;;;;;;9.47;4.53;;;;;;;20.10;100.00;101802.19;4980912;28;20272;-52
2022/06/03 03:27:25;;;;;;;9.90;5.43;;;;;;;19.94;100.00;101798.25;4978159;28;20273;-53
2022/06/03 03:30:08;;;;;;;8.03;5.37;;;;;;;20.58;100.00;101802.13;4977354;28;20284;-49
2022/06/03 03:32:41;;;;;;;10.93;5.27;;;;;;;20.56;100.00;101815.94;5004680;28;20284;-52
2022/06/03 03:35:47;;;;;;;8.43;5.43;;;;;;;20.41;100.00;101812.88;5026589;28;20264;-54
2022/06/03 03:38:43;;;;;;;8.37;5.50;;;;;;;20.39;100.00;101813.16;5002090;28;20278;-56
2022/06/03 03:41:39;;;;;;;8.27;5.10;;;;;;;20.22;100.00;101804.06;5032378;28;20338;-55
2022/06/03 03:44:29;;;;;;;9.63;5.00;;;;;;;20.07;100.00;101791.81;5017841;28;20282;-49
2022/06/03 03:47:10;;;;;;;8.20;5.43;;;;;;;19.95;100.00;101789.06;5019815;28;20287;-52
2022/06/03 03:49:54;;;;;;;9.17;5.30;;;;;;;19.84;100.00;101790.69;5028485;28;20298;-53
2022/06/03 03:52:41;;;;;;;10.83;4.90;;;;;;;20.23;100.00;101778.56;5019710;28;20283;-53
2022/06/03 03:55:27;;;;;;;7.57;4.78;;;;;;;20.02;100.00;101778.94;5018536;28;20272;-53
2022/06/03 03:58:24;;;;;;;8.43;4.80;;;;;;;19.82;100.00;101778.41;5015962;28;20066;-53
2022/06/03 04:00:59;;;;;;;8.77;4.60;;;;;;;19.93;100.00;101780.31;5017326;28;20291;-52
2022/06/03 04:03:43;;;;;;;7.10;4.93;;;;;;;19.86;100.00;101785.03;5028534;28;20299;-50
2022/06/03 04:06:40;;;;;;;9.33;5.13;;;;;;;20.04;100.00;101781.38;5018263;28;20264;-54
2022/06/03 04:09:36;;;;;;;9.20;5.30;;;;;;;20.09;100.00;101775.25;5018200;28;20287;-52
2022/06/03 04:12:23;;;;;;;6.97;4.93;;;;;;;20.00;100.00;101777.50;5017168;28;20275;-48
2022/06/03 04:14:55;;;;;;;10.68;5.00;;;;;;;19.94;100.00;101778.44;5020654;28;20287;-52
2022/06/03 04:17:39;;;;;;;13.67;5.93;;;;;;;19.92;100.00;101778.66;5010565;28;20037;-52
2022/06/03 04:20:44;;;;;;;8.30;5.43;;;;;;;19.48;100.00;101768.09;5017305;28;20263;-51
2022/06/03 04:23:30;;;;;;;8.17;4.80;;;;;;;20.00;100.00;101772.06;5017635;28;20280;-54
2022/06/03 04:26:12;;;;;;;7.73;4.17;;;;;;;19.86;100.00;101766.88;5015860;28;20272;-51
2022/06/03 04:29:07;;;;;;;12.67;5.63;;;;;;;19.64;100.00;101766.59;5022044;28;20343;-54
2022/06/03 04:31:54;;;;;;;11.67;5.60;;;;;;;19.38;100.00;101760.53;5027807;28;20365;-52
2022/06/03 04:34:57;;;;;;;11.65;5.38;;;;;;;19.71;100.00;101755.63;5018949;28;20263;-52
2022/06/03 04:37:52;;;;;;;9.00;5.17;;;;;;;19.87;100.00;101754.94;5015773;28;20034;-53
2022/06/03 04:40:39;;;;;;;9.23;5.13;;;;;;;19.84;100.00;101757.28;5018716;28;20334;-54
2022/06/03 04:43:42;;;;;;;8.07;5.38;;;;;;;19.95;100.00;101764.63;5018312;28;20309;-53
2022/06/03 04:46:34;;;;;;;9.77;5.80;;;;;;;20.06;100.00;101758.38;5017284;28;20044;-52
2022/06/03 04:49:34;;;;;;;7.50;5.27;;;;;;;20.63;100.00;101764.19;5018773;28;20283;-52
2022/06/03 04:52:21;;;;;;;8.83;5.00;;;;;;;20.52;100.00;101770.47;4999823;28;20275;-51
2022/06/03 04:55:07;;;;;;;12.27;6.00;;;;;;;20.65;100.00;101775.66;5020363;28;20276;-49
2022/06/03 04:58:00;;;;;;;14.13;5.60;;;;;;;20.69;100.00;101776.81;5027776;28;20286;-50
2022/06/03 05:00:48;;;;;;;8.50;5.30;;;;;;;20.17;100.00;101767.59;5019203;28;20259;-51
2022/06/03 05:03:34;;;;;;;9.55;5.20;;;;;;;20.83;100.00;101766.50;5017068;28;20298;-53
2022/06/03 05:06:25;;;;;;;9.30;5.28;;;;;;;20.74;100.00;101762.50;5015966;28;20041;-53
2022/06/03 05:09:30;;;;;;;9.20;5.47;;;;;;;20.49;100.00;101769.88;5019845;28;20039;-51
2022/06/03 05:12:11;;;;;;;9.47;5.47;;;;;;;20.32;100.00;101771.72;5011669;28;20292;-54
2022/06/03 05:15:04;;;;;;;12.80;6.13;;;;;;;20.55;100.00;101773.53;5020812;28;20342;-54
2022/06/03 05:17:50;;;;;;;10.07;5.40;;;;;;;20.37;100.00;101779.97;5025029;28;20274;-54
2022/06/03 05:20:38;;;;;;;8.40;6.03;;;;;;;20.40;100.00;101779.47;5024272;28;20264;-50
2022/06/03 05:23:09;;;;;;;;;;;;;;;20.99;100.00;101775.81;5024509;28;20267;-51
2022/06/03 05:26:09;;;;;;;7.90;5.47;;;;;;;20.74;100.00;101773.38;5029821;28;19917;-52
2022/06/03 05:28:48;;;;;;;8.03;5.47;;;;;;;20.67;100.00;101778.13;5020222;28;20297;-54
2022/06/03 05:31:26;;;;;;;11.27;5.63;;;;;;;20.44;100.00;101769.78;5016232;28;20288;-52
2022/06/03 05:34:23;;;;;;;7.97;5.40;;;;;;;20.07;100.00;101770.09;5027158;28;20291;-52
2022/06/03 05:36:56;;;;;;;;;;;;;;;20.57;100.00;101768.69;5022119;28;20317;-51
2022/06/03 05:39:49;;;;;;;9.87;5.40;;;;;;;20.48;100.00;101760.09;5015555;28;19949;-54
2022/06/03 05:42:50;;;;;;;9.03;6.23;;;;;;;20.73;100.00;101769.81;5017201;28;20286;-53
2022/06/03 05:45:31;;;;;;;13.17;6.30;;;;;;;21.00;100.00;101766.59;5016073;28;20268;-52
2022/06/03 05:48:09;;;;;;;12.07;6.13;;;;;;;20.81;100.00;101765.13;5014537;28;20259;-53
2022/06/03 05:50:53;;;;;;;10.07;6.33;;;;;;;20.57;100.00;101762.44;5021725;28;20283;-51
2022/06/03 05:53:39;;;;;;;12.60;6.53;;;;;;;21.16;100.00;101764.13;5025461;28;20363;-54
2022/06/03 05:56:44;;;;;;;12.17;5.77;;;;;;;21.18;100.00;101765.53;5015389;28;20363;-51
2022/06/03 05:59:21;;;;;;;12.33;6.20;;;;;;;21.46;100.00;101763.03;5016957;28;20272;-56
2022/06/03 06:01:49;;;;;;;;;;;;;;;20.84;100.00;101759.19;5027216;28;20267;-51
2022/06/03 06:04:25;;;;;;;10.73;5.77;;;;;;;20.94;100.00;101759.38;5016510;28;19936;-52
2022/06/03 06:07:00;;;;;;;10.60;5.20;;;;;;;21.23;100.00;101769.41;5019381;28;20347;-50
2022/06/03 06:09:52;;;;;;;10.37;5.37;;;;;;;21.15;100.00;101767.91;5026116;28;20129;-53
2022/06/03 06:12:56;;;;;;;9.97;5.40;;;;;;;21.07;100.00;101760.97;5019688;28;20276;-49
2022/06/03 06:15:41;;;;;;;7.30;4.80;;;;;;;21.30;100.00;101770.06;5018223;28;20272;-50
2022/06/03 06:18:29;;;;;;;9.10;5.30;;;;;;;21.45;100.00;101770.34;5018954;28;20259;-53
2022/06/03 06:20:58;;;;;;;8.63;5.00;;;;;;;21.25;100.00;101768.13;5021982;28;20276;-54
2022/06/03 06:23:43;;;;;;;10.17;5.53;;;;;;;20.98;100.00;101765.97;5029008;28;20287;-52
2022/06/03 06:26:44;;;;;;;9.00;5.60;;;;;;;21.49;100.00;101776.94;5013556;28;20355;-55
2022/06/03 06:29:28;;;;;;;9.07;5.47;;;;;;;21.52;100.00;101770.19;5026881;28;20345;-54
2022/06/03 06:31:59;;;;;;;8.67;6.00;;;;;;;21.68;100.00;101782.19;5016417;28;20302;-55
2022/06/03 06:35:03;;;;;;;10.00;5.77;;;;;;;21.92;100.00;101776.56;5025783;28;20272;-53
2022/06/03 06:37:58;;;;;;;13.93;5.87;;;;;;;22.24;100.00;101786.00;5012930;28;20303;-52
2022/06/03 06:40:33;;;;;;;7.90;5.80;;;;;;;22.22;100.00;101782.69;5020383;28;20267;-50
2022/06/03 06:43:31;;;;;;;6.53;4.20;;;;;;;22.22;100.00;101779.97;5021233;28;20311;-53
2022/06/03 06:46:06;;;;;;;9.18;5.93;;;;;;;21.96;100.00;101780.44;5016688;28;20275;-52
2022/06/03 06:48:50;;;;;;;9.13;5.37;;;;;;;22.33;100.00;101781.75;5024449;28;20045;-52
2022/06/03 06:51:33;;;;;;;12.30;6.17;;;;;;;22.46;100.00;101780.56;5027073;28;20314;-49
2022/06/03 06:54:13;;;;;;;7.40;5.10;;;;;;;22.39;100.00;101780.75;5016665;28;20279;-53
2022/06/03 06:56:49;;;;;;;8.43;5.43;;;;;;;22.35;98.12;101774.97;5023306;28;20356;-54
2022/06/03 06:59:28;;;;;;;10.37;5.53;;;;;;;22.10;100.00;101777.38;5012869;28;20282;-55
2022/06/03 07:02:03;;;;;;;12.57;5.20;;;;;;;21.89;100.00;101771.63;5029100;28;20260;-51
2022/06/03 07:04:36;;;;;;;12.57;5.83;;;;;;;21.74;100.00;101773.00;5020663;28;20260;-51
2022/06/03 07:07:15;;;;;;;6.57;4.90;;;;;;;22.42;95.76;101773.97;5003252;28;20272;-52
2022/06/03 07:09:56;;;;;;;6.80;5.10;;;;;;;23.12;93.94;101776.16;5028583;28;20308;-54
2022/06/03 07:12:30;;;;;;;7.90;5.40;;;;;;;23.14;90.63;101779.44;5019536;28;20359;-52
2022/06/03 07:15:07;;;;;;;8.57;5.23;;;;;;;23.19;91.13;101776.75;5021133;28;20303;-55
2022/06/03 07:20:48;;;;;;;8.03;5.50;;;;;;;22.80;96.57;101776.91;5051367;28;20083;-49
2022/06/03 07:23:38;;;;;;;10.17;5.37;;;;;;;23.31;90.00;101771.16;5029493;28;20311;-52
2022/06/03 07:26:14;;;;;;;8.13;4.77;;;;;;;23.35;88.84;101769.56;5031133;28;20301;-53
2022/06/03 07:29:09;;;;;;;8.77;5.50;;;;;;;23.58;92.37;101779.31;5031238;28;20289;-56
2022/06/03 07:31:42;;;;;;;7.30;4.43;;;;;;;23.82;89.75;101781.69;5031454;28;20283;-55
2022/06/03 07:34:20;;;;;;;10.13;5.17;;;;;;;23.77;91.93;101782.47;5029181;28;20275;-54
2022/06/03 07:37:01;;;;;;;7.33;5.23;;;;;;;23.73;87.89;101780.50;5031026;28;20276;-54
2022/06/03 07:39:48;;;;;;;7.27;4.27;;;;;;;23.77;88.75;101776.19;5031221;28;20348;-54
2022/06/03 07:42:35;;;;;;;7.00;4.30;;;;;;;23.78;88.71;101778.66;5030913;28;20275;-53
2022/06/03 07:45:26;;;;;;;8.20;5.10;;;;;;;23.52;91.04;101769.44;5030767;28;20293;-52
2022/06/03 07:47:54;;;;;;;9.97;4.87;;;;;;;23.98;87.70;101768.94;5029639;28;20093;-54
2022/06/03 07:50:21;;;;;;;10.60;5.47;;;;;;;24.53;82.16;101767.88;5030549;28;20279;-53
2022/06/03 07:53:07;;;;;;;7.33;4.17;;;;;;;23.75;88.39;101762.78;5027808;28;20055;-53
2022/06/03 07:55:35;;;;;;;6.90;4.47;;;;;;;24.15;84.65;101755.13;5030833;28;20037;-55
2022/06/03 07:58:15;;;;;;;7.63;4.47;;;;;;;24.48;84.15;101763.22;5030059;28;20026;-50
2022/06/03 08:00:43;;;;;;;10.43;4.43;;;;;;;24.31;85.36;101750.56;5028007;28;20038;-53
2022/06/03 08:03:16;;;;;;;8.60;5.00;;;;;;;24.66;82.17;101750.16;5027461;28;20041;-54
2022/06/03 08:05:46;;;;;;;8.33;4.33;;;;;;;24.95;74.63;101750.53;5027487;28;20034;-51
2022/06/03 08:11:05;;;;;;;7.27;3.63;;;;;;;24.78;75.09;101750.75;5028356;28;20051;-54
2022/06/03 08:13:39;;;;;;;7.37;4.70;;;;;;;24.87;74.44;101749.13;5027761;28;20048;-53
2022/06/03 08:16:11;;;;;;;7.40;4.50;;;;;;;24.63;75.37;101748.75;5028189;28;20049;-55
2022/06/03 08:18:40;;;;;;;6.40;4.50;;;;;;;24.75;76.73;101738.44;5030325;28;20040;-54
2022/06/03 08:21:09;;;;;;;8.47;4.53;;;;;;;24.92;75.00;101748.34;5028167;28;20033;-55
2022/06/03 08:23:37;;;;;;;9.70;4.60;;;;;;;24.76;75.96;101751.03;5030863;28;20033;-54
2022/06/03 08:26:09;;;;;;;9.70;4.07;;;;;;;24.67;74.07;101741.66;5028172;28;20049;-52
2022/06/03 08:28:38;;;;;;;7.60;3.67;;;;;;;25.14;68.52;101747.25;5030318;28;20025;-56
2022/06/03 08:31:06;;;;;;;8.17;3.43;;;;;;;25.14;68.69;101744.50;5029368;28;20041;-57
2022/06/03 08:33:41;;;;;;;6.60;2.77;;;;;;;25.31;66.51;101739.59;5026708;28;20054;-55
2022/06/03 08:36:10;;;;;;;8.37;3.00;;;;;;;25.83;65.68;101730.53;5029545;28;20033;-55
2022/06/03 08:38:44;;;;;;;4.70;2.53;;;;;;;26.13;63.93;101732.38;5030992;28;20097;-55
2022/06/03 08:41:38;;;;;;;4.50;2.90;;;;;;;26.32;62.64;101732.59;5027104;28;20041;-54
2022/06/03 08:44:33;;;;;;;5.97;2.80;;;;;;;26.01;62.25;101724.47;5028303;28;20064;-55
2022/06/03 08:47:09;;;;;;;16.00;5.67;;;;;;;26.37;61.55;101717.22;5019977;28;20022;-49
2022/06/03 08:49:46;;;;;;;9.57;4.90;;;;;;;26.54;62.49;101719.59;5026986;28;20053;-52
2022/06/03 08:52:14;;;;;;;13.85;7.97;;;;;;;26.70;63.60;101714.84;5028212;28;20046;-55
2022/06/03 08:54:48;;;;;;;14.87;7.70;;;;;;;27.11;61.28;101730.22;5030273;28;20053;-53
2022/06/03 08:57:23;;;;;;;20.43;9.33;;;;;;;27.58;58.94;101738.91;5029955;28;20055;-53
2022/06/03 09:00:00;;;;;;;12.60;5.83;;;;;;;27.31;60.00;101740.22;5028781;28;20067;-54
2022/06/03 09:02:37;;;;;;;5.68;3.58;;;;;;;27.04;63.08;101741.53;5030239;28;20030;-53
2022/06/03 09:05:10;;;;;;;7.43;4.13;;;;;;;27.63;61.13;101736.91;5027941;28;20034;-54
2022/06/03 09:07:49;;;;;;;9.17;5.60;;;;;;;27.86;58.62;101748.22;5029579;28;20061;-52
2022/06/03 09:10:40;;;;;;;6.27;3.37;;;;;;;27.91;58.95;101739.94;5027665;28;20071;-54
2022/06/03 09:13:20;;;;;;;12.80;7.20;;;;;;;28.22;55.35;101736.03;5029600;28;20041;-52
2022/06/03 09:15:47;;;;;;;6.57;3.80;;;;;;;28.28;56.90;101732.13;5027921;28;20041;-54
2022/06/03 09:18:18;;;;;;;13.87;7.03;;;;;;;27.96;56.83;101730.00;5027389;28;20026;-52
2022/06/03 09:20:57;;;;;;;11.63;6.20;;;;;;;27.97;56.00;101731.63;5029902;28;20094;-54
2022/06/03 09:23:25;;;;;;;53.20;25.93;;;;;;;28.15;56.11;101727.28;5027343;28;20041;-54
2022/06/03 09:25:57;;;;;;;16.53;10.00;;;;;;;28.56;53.95;101735.03;5029256;28;20034;-54
2022/06/03 09:28:27;;;;;;;7.80;3.70;;;;;;;28.14;55.95;101728.41;5029676;28;20060;-55
2022/06/03 09:30:54;;;;;;;13.17;6.67;;;;;;;28.12;56.83;101725.94;5029894;28;20026;-55
2022/06/03 09:33:22;;;;;;;16.30;8.50;;;;;;;28.41;53.00;101725.06;5029629;28;20070;-55
2022/06/03 09:35:52;;;;;;;9.87;4.77;;;;;;;28.53;53.16;101723.81;5030241;28;20034;-54
2022/06/03 09:38:21;;;;;;;13.53;6.60;;;;;;;29.17;52.00;101728.91;5030726;28;20037;-52
2022/06/03 09:40:48;;;;;;;10.97;5.57;;;;;;;29.68;49.27;101723.63;5020999;28;20036;-54
2022/06/03 09:43:22;;;;;;;13.17;6.30;;;;;;;30.44;45.90;101728.72;5023507;28;20046;-55
2022/06/03 09:45:51;;;;;;;8.97;4.03;;;;;;;30.75;45.63;101738.28;5021069;28;20045;-52
2022/06/03 09:48:24;;;;;;;5.70;2.70;;;;;;;30.78;44.23;101731.31;5028158;28;20044;-55
2022/06/03 09:50:52;;;;;;;11.68;5.60;;;;;;;31.99;39.13;101728.78;5023485;28;20066;-53
2022/06/03 09:53:21;;;;;;;19.15;8.75;;;;;;;32.71;38.56;101726.59;5020098;28;20034;-56
2022/06/03 09:55:53;;;;;;;15.68;9.10;;;;;;;33.43;37.04;101729.00;5030367;28;20046;-56
2022/06/03 09:58:23;;;;;;;16.75;7.78;;;;;;;33.45;35.31;101728.66;5026645;28;20034;-56
2022/06/03 10:00:52;;;;;;;10.05;5.43;;;;;;;33.88;35.19;101729.63;5032864;28;20034;-54
2022/06/03 10:03:19;;;;;;;15.63;6.80;;;;;;;34.79;34.08;101727.53;5030707;28;20123;-56
2022/06/03 10:05:54;;;;;;;11.43;5.53;;;;;;;35.17;34.20;101730.13;5033019;28;20041;-56
2022/06/03 10:08:24;;;;;;;7.95;4.05;;;;;;;35.30;31.50;101730.97;5030741;28;20034;-54
2022/06/03 10:13:38;;;;;;;7.33;4.70;;;;;;;36.13;30.50;101729.28;5032970;28;20063;-53
2022/06/03 10:16:07;;;;;;;9.35;5.03;;;;;;;35.71;30.51;101724.75;5029290;28;20287;-56
2022/06/03 10:18:33;;;;;;;7.97;2.72;;;;;;;36.69;29.05;101736.94;5033231;28;20057;-55
2022/06/03 10:21:19;;;;;;;9.75;5.25;;;;;;;37.11;28.69;101732.09;5042685;28;20048;-56
2022/06/03 10:23:47;;;;;;;6.28;2.97;;;;;;;37.05;27.51;101714.84;5020014;28;20052;-55
2022/06/03 10:26:26;;;;;;;5.43;2.60;;;;;;;36.84;28.17;101717.81;5026051;28;20030;-53
2022/06/03 10:28:55;;;;;;;5.68;2.35;;;;;;;37.27;27.14;101724.56;5033488;28;20029;-55
2022/06/03 10:31:30;;;;;;;5.85;2.78;;;;;;;37.40;26.67;101727.28;5019409;28;20049;-54
2022/06/03 10:34:03;;;;;;;7.37;4.10;;;;;;;38.15;25.09;101721.88;5029577;28;20048;-55
2022/06/03 10:36:36;;;;;;;5.43;1.67;;;;;;;37.63;25.74;101707.13;5018674;28;20272;-56
2022/06/03 10:39:03;;;;;;;4.45;1.50;;;;;;;37.56;25.12;101705.78;5004783;28;20058;-54
2022/06/03 10:41:38;;;;;;;4.88;1.63;;;;;;;37.99;25.03;101702.38;5028126;28;20034;-54
2022/06/03 10:44:17;;;;;;;6.23;2.13;;;;;;;37.81;24.36;101697.19;5017070;28;20033;-56
2022/06/03 10:47:00;;;;;;;3.78;1.92;;;;;;;37.75;25.19;101706.22;5033154;28;20276;-56
2022/06/03 10:49:28;;;;;;;3.20;1.55;;;;;;;38.64;23.93;101700.97;5018492;28;20094;-56
2022/06/03 11:03:05;;;;;;;3.15;1.38;;;;;;;38.39;23.49;101704.03;5021461;28;20049;-56
2022/06/03 11:05:31;;;;;;;5.05;1.77;;;;;;;38.80;23.51;101688.91;5011363;28;20056;-55
2022/06/03 11:08:06;;;;;;;11.65;7.78;;;;;;;38.60;23.70;101691.72;5015827;28;20042;-55
2022/06/03 11:10:31;;;;;;;16.93;12.47;;;;;;;39.44;22.85;101696.81;5014541;28;20086;-55
2022/06/03 11:13:02;;;;;;;7.40;4.53;;;;;;;39.60;22.68;101699.47;5029533;28;20305;-53
2022/06/03 11:15:33;;;;;;;10.00;5.45;;;;;;;40.33;21.46;101692.88;5029300;28;20037;-54
2022/06/03 11:18:00;;;;;;;9.55;4.13;;;;;;;40.67;20.92;101692.88;5026702;28;20038;-56
2022/06/03 11:20:35;;;;;;;7.43;2.55;;;;;;;39.95;21.22;101700.41;5026278;28;20038;-57
2022/06/03 11:23:03;;;;;;;10.85;4.38;;;;;;;40.38;21.78;101694.56;5022770;28;20042;-55
2022/06/03 11:25:31;;;;;;;7.88;4.03;;;;;;;41.11;20.81;101696.13;5030157;28;20098;-56
2022/06/03 11:28:03;;;;;;;6.45;2.10;;;;;;;41.59;20.31;101692.50;5030097;28;20037;-57
2022/06/03 11:30:47;;;;;;;7.00;2.08;;;;;;;41.14;20.81;101696.13;5030417;28;20025;-54
2022/06/03 11:33:20;;;;;;;6.45;2.40;;;;;;;41.80;20.45;101694.66;5025852;28;20076;-55
2022/06/03 11:35:51;;;;;;;5.88;1.95;;;;;;;42.10;19.71;101699.25;5029724;28;20034;-55
2022/06/03 11:38:28;;;;;;;2.05;1.60;;;;;;;41.64;20.36;101685.72;5031250;28;20040;-56
2022/06/03 11:40:58;;;;;;;5.28;2.00;;;;;;;41.62;21.10;101696.56;5028794;28;20030;-56
2022/06/03 11:43:46;;;;;;;2.03;1.45;;;;;;;42.53;19.54;101689.38;5031398;28;20034;-53
2022/06/03 11:46:15;;;;;;;5.82;2.30;;;;;;;42.98;19.32;101687.03;5030830;28;20041;-56
2022/06/03 11:48:44;;;;;;;4.00;2.88;;;;;;;43.29;19.28;101689.47;5031292;28;20037;-55
2022/06/03 11:51:11;;;;;;;8.85;5.57;;;;;;;43.31;19.95;101687.06;5030944;28;20022;-55
2022/06/03 11:53:47;;;;;;;7.72;3.45;;;;;;;42.42;19.93;101683.69;5028557;28;20045;-56
2022/06/03 11:56:15;;;;;;;7.07;2.92;;;;;;;41.99;19.87;101687.13;5031003;28;20059;-55
2022/06/03 11:58:53;;;;;;;7.47;3.33;;;;;;;41.48;20.73;101683.19;5020228;28;20093;-53
2022/06/03 12:01:24;;;;;;;4.03;2.83;;;;;;;42.17;20.07;101673.19;5002364;28;20035;-57
2022/06/03 12:03:59;;;;;;;4.97;2.10;;;;;;;42.88;19.28;101681.41;5028788;28;20033;-55
2022/06/03 12:06:33;;;;;;;6.00;2.72;;;;;;;43.18;19.19;101683.84;5028144;28;20037;-55
2022/06/03 12:09:23;;;;;;;5.03;2.10;;;;;;;43.39;19.30;101685.84;5028536;28;20034;-56
2022/06/03 12:14:57;;;;;;;3.22;1.70;;;;;;;43.36;19.11;101683.00;5021118;28;20044;-56
2022/06/03 12:17:32;;;;;;;4.68;1.42;;;;;;;43.62;17.75;101680.97;5031082;28;20062;-56
2022/06/03 12:19:58;;;;;;;4.35;1.65;;;;;;;43.60;18.44;101684.19;5019538;28;20034;-54
2022/06/03 12:22:30;;;;;;;3.53;1.55;;;;;;;43.31;18.86;101675.81;5030401;28;20042;-57
2022/06/03 12:25:03;;;;;;;4.50;1.55;;;;;;;43.66;19.27;101687.41;5030306;28;20049;-56
2022/06/03 12:27:39;;;;;;;2.88;1.80;;;;;;;42.68;18.98;101671.34;5030129;28;20038;-57
2022/06/03 12:30:20;;;;;;;2.75;1.80;;;;;;;42.90;18.63;101679.00;5030056;28;20055;-55
2022/06/03 12:32:54;;;;;;;2.22;1.25;;;;;;;43.98;17.72;101675.22;5022533;28;20058;-57
2022/06/03 12:35:43;;;;;;;4.18;1.40;;;;;;;44.43;16.60;101682.28;5006571;28;20042;-56
2022/06/03 12:38:20;;;;;;;3.33;1.10;;;;;;;44.94;17.19;101675.09;5013802;28;20053;-57
2022/06/03 12:40:55;;;;;;;5.90;2.50;;;;;;;44.87;16.53;101672.31;5021330;28;20036;-55
2022/06/03 12:43:29;;;;;;;4.60;1.35;;;;;;;44.53;17.12;101681.44;5010415;28;20042;-56
2022/06/03 12:46:04;;;;;;;3.47;1.92;;;;;;;44.51;17.25;101672.53;5010471;28;20102;-55